sensor_id;sensor_type;location;lat;lon;timestamp;P1;durP1;ratioP1;P2;durP2;ratioP2
26050;SDS011;13825;53.496;10.020;2023-07-22T00:00:04;6.77;;;4.80;;
26050;SDS011;13825;53.496;10.020;2023-07-22T00:02:36;6.67;;;4.57;;
26050;SDS011;13825;53.496;10.020;2023-07-22T00:05:06;8.37;;;4.67;;
26050;SDS011;13825;53.496;10.020;2023-07-22T00:07:36;6.93;;;4.70;;
26050;SDS011;13825;53.496;10.020;2023-07-22T00:10:05;8.20;;;4.40;;
26050;SDS011;13825;53.496;10.020;2023-07-22T00:12:34;5.27;;;3.50;;
26050;SDS011;13825;53.496;10.020;2023-07-22T00:15:02;7.03;;;4.63;;
26050;SDS011;13825;53.496;10.020;2023-07-22T00:17:31;6.30;;;4.70;;
26050;SDS011;13825;53.496;10.020;2023-07-22T00:19:58;8.67;;;4.57;;
26050;SDS011;13825;53.496;10.020;2023-07-22T00:22:25;8.97;;;4.43;;
26050;SDS011;13825;53.496;10.020;2023-07-22T00:24:52;8.03;;;4.80;;
26050;SDS011;13825;53.496;10.020;2023-07-22T00:27:19;7.70;;;4.47;;
26050;SDS011;13825;53.496;10.020;2023-07-22T00:29:46;9.20;;;5.50;;
26050;SDS011;13825;53.496;10.020;2023-07-22T00:32:16;6.47;;;4.57;;
26050;SDS011;13825;53.496;10.020;2023-07-22T00:34:43;6.33;;;4.63;;
26050;SDS011;13825;53.496;10.020;2023-07-22T00:37:10;7.87;;;5.13;;
26050;SDS011;13825;53.496;10.020;2023-07-22T00:39:36;6.87;;;4.67;;
26050;SDS011;13825;53.496;10.020;2023-07-22T00:42:04;6.80;;;4.90;;
26050;SDS011;13825;53.496;10.020;2023-07-22T00:44:34;7.30;;;5.13;;
26050;SDS011;13825;53.496;10.020;2023-07-22T00:47:02;9.13;;;4.57;;
26050;SDS011;13825;53.496;10.020;2023-07-22T00:49:31;7.20;;;4.80;;
26050;SDS011;13825;53.496;10.020;2023-07-22T00:52:01;8.13;;;5.50;;
26050;SDS011;13825;53.496;10.020;2023-07-22T00:54:28;8.53;;;5.23;;
26050;SDS011;13825;53.496;10.020;2023-07-22T00:56:56;7.03;;;4.50;;
26050;SDS011;13825;53.496;10.020;2023-07-22T00:59:25;9.67;;;4.80;;
26050;SDS011;13825;53.496;10.020;2023-07-22T01:01:52;9.80;;;5.13;;
26050;SDS011;13825;53.496;10.020;2023-07-22T01:04:19;7.60;;;4.97;;
26050;SDS011;13825;53.496;10.020;2023-07-22T01:06:49;7.73;;;5.07;;
26050;SDS011;13825;53.496;10.020;2023-07-22T01:09:18;8.77;;;5.10;;
26050;SDS011;13825;53.496;10.020;2023-07-22T01:11:45;8.40;;;5.20;;
26050;SDS011;13825;53.496;10.020;2023-07-22T01:14:12;7.03;;;5.33;;
26050;SDS011;13825;53.496;10.020;2023-07-22T01:16:38;6.73;;;4.73;;
26050;SDS011;13825;53.496;10.020;2023-07-22T01:19:06;8.37;;;4.13;;
26050;SDS011;13825;53.496;10.020;2023-07-22T01:21:34;5.67;;;4.30;;
26050;SDS011;13825;53.496;10.020;2023-07-22T01:24:04;9.93;;;5.03;;
26050;SDS011;13825;53.496;10.020;2023-07-22T01:26:31;9.23;;;4.60;;
26050;SDS011;13825;53.496;10.020;2023-07-22T01:29:02;8.60;;;4.23;;
26050;SDS011;13825;53.496;10.020;2023-07-22T01:31:33;8.73;;;4.67;;
26050;SDS011;13825;53.496;10.020;2023-07-22T01:34:02;10.87;;;5.70;;
26050;SDS011;13825;53.496;10.020;2023-07-22T01:36:30;7.77;;;4.80;;
26050;SDS011;13825;53.496;10.020;2023-07-22T01:38:57;6.80;;;4.57;;
26050;SDS011;13825;53.496;10.020;2023-07-22T01:41:27;9.57;;;5.20;;
26050;SDS011;13825;53.496;10.020;2023-07-22T01:43:53;9.00;;;5.20;;
26050;SDS011;13825;53.496;10.020;2023-07-22T01:46:23;8.93;;;4.70;;
26050;SDS011;13825;53.496;10.020;2023-07-22T01:48:50;7.43;;;4.03;;
26050;SDS011;13825;53.496;10.020;2023-07-22T01:51:17;5.93;;;4.47;;
26050;SDS011;13825;53.496;10.020;2023-07-22T01:53:44;6.93;;;4.40;;
26050;SDS011;13825;53.496;10.020;2023-07-22T01:56:11;7.93;;;4.97;;
26050;SDS011;13825;53.496;10.020;2023-07-22T01:58:39;7.93;;;4.67;;
26050;SDS011;13825;53.496;10.020;2023-07-22T02:01:06;7.87;;;5.07;;
26050;SDS011;13825;53.496;10.020;2023-07-22T02:03:33;10.23;;;5.03;;
26050;SDS011;13825;53.496;10.020;2023-07-22T02:06:01;9.37;;;5.10;;
26050;SDS011;13825;53.496;10.020;2023-07-22T02:08:29;11.63;;;5.10;;
26050;SDS011;13825;53.496;10.020;2023-07-22T02:10:58;7.97;;;4.97;;
26050;SDS011;13825;53.496;10.020;2023-07-22T02:13:26;8.37;;;4.83;;
26050;SDS011;13825;53.496;10.020;2023-07-22T02:15:55;8.27;;;4.97;;
26050;SDS011;13825;53.496;10.020;2023-07-22T02:18:22;10.57;;;5.43;;
26050;SDS011;13825;53.496;10.020;2023-07-22T02:20:49;9.33;;;5.33;;
26050;SDS011;13825;53.496;10.020;2023-07-22T02:23:15;8.73;;;5.27;;
26050;SDS011;13825;53.496;10.020;2023-07-22T02:25:43;11.77;;;5.53;;
26050;SDS011;13825;53.496;10.020;2023-07-22T02:28:10;7.53;;;4.93;;
26050;SDS011;13825;53.496;10.020;2023-07-22T02:30:37;9.23;;;5.40;;
26050;SDS011;13825;53.496;10.020;2023-07-22T02:33:05;10.13;;;5.53;;
26050;SDS011;13825;53.496;10.020;2023-07-22T02:35:32;11.60;;;5.80;;
26050;SDS011;13825;53.496;10.020;2023-07-22T02:37:59;9.20;;;5.17;;
26050;SDS011;13825;53.496;10.020;2023-07-22T02:40:27;8.23;;;5.10;;
26050;SDS011;13825;53.496;10.020;2023-07-22T02:42:53;11.80;;;5.33;;
26050;SDS011;13825;53.496;10.020;2023-07-22T02:45:23;11.80;;;5.97;;
26050;SDS011;13825;53.496;10.020;2023-07-22T02:47:49;9.37;;;5.30;;
26050;SDS011;13825;53.496;10.020;2023-07-22T02:50:18;10.90;;;5.70;;
26050;SDS011;13825;53.496;10.020;2023-07-22T02:52:45;10.03;;;5.20;;
26050;SDS011;13825;53.496;10.020;2023-07-22T02:55:13;9.83;;;5.63;;
26050;SDS011;13825;53.496;10.020;2023-07-22T02:57:41;9.20;;;6.10;;
26050;SDS011;13825;53.496;10.020;2023-07-22T03:00:08;9.60;;;5.00;;
26050;SDS011;13825;53.496;10.020;2023-07-22T03:02:37;10.03;;;4.93;;
26050;SDS011;13825;53.496;10.020;2023-07-22T03:05:05;12.63;;;6.90;;
26050;SDS011;13825;53.496;10.020;2023-07-22T03:07:35;18.70;;;5.53;;
26050;SDS011;13825;53.496;10.020;2023-07-22T03:10:02;10.67;;;5.23;;
26050;SDS011;13825;53.496;10.020;2023-07-22T03:12:29;8.93;;;4.90;;
26050;SDS011;13825;53.496;10.020;2023-07-22T03:14:59;12.03;;;5.33;;
26050;SDS011;13825;53.496;10.020;2023-07-22T03:17:26;13.80;;;5.50;;
26050;SDS011;13825;53.496;10.020;2023-07-22T03:19:53;8.40;;;5.30;;
26050;SDS011;13825;53.496;10.020;2023-07-22T03:22:20;7.97;;;4.83;;
26050;SDS011;13825;53.496;10.020;2023-07-22T03:24:49;9.83;;;5.43;;
26050;SDS011;13825;53.496;10.020;2023-07-22T03:27:16;9.60;;;4.70;;
26050;SDS011;13825;53.496;10.020;2023-07-22T03:29:46;13.43;;;5.73;;
26050;SDS011;13825;53.496;10.020;2023-07-22T03:32:13;10.87;;;5.57;;
26050;SDS011;13825;53.496;10.020;2023-07-22T03:34:40;11.03;;;6.07;;
26050;SDS011;13825;53.496;10.020;2023-07-22T03:37:07;9.00;;;5.57;;
26050;SDS011;13825;53.496;10.020;2023-07-22T03:39:34;11.27;;;5.27;;
26050;SDS011;13825;53.496;10.020;2023-07-22T03:42:03;10.13;;;5.60;;
26050;SDS011;13825;53.496;10.020;2023-07-22T03:44:30;10.50;;;5.40;;
26050;SDS011;13825;53.496;10.020;2023-07-22T03:46:57;10.63;;;5.40;;
26050;SDS011;13825;53.496;10.020;2023-07-22T03:49:25;8.27;;;4.97;;
26050;SDS011;13825;53.496;10.020;2023-07-22T03:51:52;8.83;;;5.00;;
26050;SDS011;13825;53.496;10.020;2023-07-22T03:54:19;12.83;;;5.50;;
26050;SDS011;13825;53.496;10.020;2023-07-22T03:56:46;12.30;;;5.43;;
26050;SDS011;13825;53.496;10.020;2023-07-22T03:59:14;9.13;;;5.50;;
26050;SDS011;13825;53.496;10.020;2023-07-22T04:01:41;10.10;;;5.10;;
26050;SDS011;13825;53.496;10.020;2023-07-22T04:04:08;8.93;;;5.00;;
26050;SDS011;13825;53.496;10.020;2023-07-22T04:06:35;9.07;;;5.13;;
26050;SDS011;13825;53.496;10.020;2023-07-22T04:09:02;12.20;;;5.47;;
26050;SDS011;13825;53.496;10.020;2023-07-22T04:11:29;8.00;;;5.07;;
26050;SDS011;13825;53.496;10.020;2023-07-22T04:13:56;11.40;;;5.03;;
26050;SDS011;13825;53.496;10.020;2023-07-22T04:16:24;8.77;;;4.60;;
26050;SDS011;13825;53.496;10.020;2023-07-22T04:18:51;10.30;;;4.70;;
26050;SDS011;13825;53.496;10.020;2023-07-22T04:21:18;9.87;;;4.67;;
26050;SDS011;13825;53.496;10.020;2023-07-22T04:23:45;9.27;;;4.70;;
26050;SDS011;13825;53.496;10.020;2023-07-22T04:26:12;8.60;;;4.67;;
26050;SDS011;13825;53.496;10.020;2023-07-22T04:28:39;6.73;;;4.00;;
26050;SDS011;13825;53.496;10.020;2023-07-22T04:31:06;8.83;;;5.30;;
26050;SDS011;13825;53.496;10.020;2023-07-22T04:33:35;11.00;;;5.00;;
26050;SDS011;13825;53.496;10.020;2023-07-22T04:36:03;7.97;;;4.33;;
26050;SDS011;13825;53.496;10.020;2023-07-22T04:38:30;7.33;;;4.57;;
26050;SDS011;13825;53.496;10.020;2023-07-22T04:40:57;8.40;;;4.37;;
26050;SDS011;13825;53.496;10.020;2023-07-22T04:43:24;7.73;;;4.90;;
26050;SDS011;13825;53.496;10.020;2023-07-22T04:45:51;9.17;;;4.57;;
26050;SDS011;13825;53.496;10.020;2023-07-22T04:48:19;9.27;;;4.73;;
26050;SDS011;13825;53.496;10.020;2023-07-22T04:50:48;11.77;;;5.20;;
26050;SDS011;13825;53.496;10.020;2023-07-22T04:53:16;8.43;;;4.70;;
26050;SDS011;13825;53.496;10.020;2023-07-22T04:55:43;10.80;;;5.60;;
26050;SDS011;13825;53.496;10.020;2023-07-22T04:58:11;7.53;;;4.30;;
26050;SDS011;13825;53.496;10.020;2023-07-22T05:00:38;6.90;;;4.50;;
26050;SDS011;13825;53.496;10.020;2023-07-22T05:03:05;7.90;;;4.20;;
26050;SDS011;13825;53.496;10.020;2023-07-22T05:05:31;8.03;;;4.20;;
26050;SDS011;13825;53.496;10.020;2023-07-22T05:08:00;9.17;;;4.50;;
26050;SDS011;13825;53.496;10.020;2023-07-22T05:10:27;11.53;;;4.37;;
26050;SDS011;13825;53.496;10.020;2023-07-22T05:12:57;10.83;;;4.60;;
26050;SDS011;13825;53.496;10.020;2023-07-22T05:15:24;7.47;;;4.37;;
26050;SDS011;13825;53.496;10.020;2023-07-22T05:17:51;11.87;;;4.77;;
26050;SDS011;13825;53.496;10.020;2023-07-22T05:20:18;7.20;;;4.50;;
26050;SDS011;13825;53.496;10.020;2023-07-22T05:22:45;7.93;;;4.80;;
26050;SDS011;13825;53.496;10.020;2023-07-22T05:25:13;8.87;;;4.10;;
26050;SDS011;13825;53.496;10.020;2023-07-22T05:27:40;8.57;;;4.90;;
26050;SDS011;13825;53.496;10.020;2023-07-22T05:30:07;7.80;;;4.20;;
26050;SDS011;13825;53.496;10.020;2023-07-22T05:32:35;8.00;;;4.40;;
26050;SDS011;13825;53.496;10.020;2023-07-22T05:35:02;9.07;;;4.10;;
26050;SDS011;13825;53.496;10.020;2023-07-22T05:37:30;7.57;;;4.43;;
26050;SDS011;13825;53.496;10.020;2023-07-22T05:39:58;10.17;;;4.80;;
26050;SDS011;13825;53.496;10.020;2023-07-22T05:42:27;10.00;;;4.37;;
26050;SDS011;13825;53.496;10.020;2023-07-22T05:44:54;7.90;;;4.27;;
26050;SDS011;13825;53.496;10.020;2023-07-22T05:47:21;9.97;;;3.83;;
26050;SDS011;13825;53.496;10.020;2023-07-22T05:49:48;5.07;;;3.70;;
26050;SDS011;13825;53.496;10.020;2023-07-22T05:52:15;5.93;;;3.97;;
26050;SDS011;13825;53.496;10.020;2023-07-22T05:54:43;7.63;;;4.00;;
26050;SDS011;13825;53.496;10.020;2023-07-22T05:57:10;8.87;;;4.27;;
26050;SDS011;13825;53.496;10.020;2023-07-22T05:59:38;7.50;;;3.80;;
26050;SDS011;13825;53.496;10.020;2023-07-22T06:02:05;6.83;;;3.93;;
26050;SDS011;13825;53.496;10.020;2023-07-22T06:04:34;8.53;;;3.67;;
26050;SDS011;13825;53.496;10.020;2023-07-22T06:07:05;4.70;;;3.37;;
26050;SDS011;13825;53.496;10.020;2023-07-22T06:09:32;6.47;;;3.77;;
26050;SDS011;13825;53.496;10.020;2023-07-22T06:12:00;7.23;;;3.27;;
26050;SDS011;13825;53.496;10.020;2023-07-22T06:14:27;5.97;;;3.40;;
26050;SDS011;13825;53.496;10.020;2023-07-22T06:16:55;6.80;;;3.60;;
26050;SDS011;13825;53.496;10.020;2023-07-22T06:19:22;5.33;;;3.00;;
26050;SDS011;13825;53.496;10.020;2023-07-22T06:21:49;5.90;;;3.13;;
26050;SDS011;13825;53.496;10.020;2023-07-22T06:24:16;4.73;;;3.33;;
26050;SDS011;13825;53.496;10.020;2023-07-22T06:26:43;6.63;;;3.43;;
26050;SDS011;13825;53.496;10.020;2023-07-22T06:29:10;6.07;;;3.13;;
26050;SDS011;13825;53.496;10.020;2023-07-22T06:31:37;5.57;;;2.97;;
26050;SDS011;13825;53.496;10.020;2023-07-22T06:34:06;4.20;;;2.80;;
26050;SDS011;13825;53.496;10.020;2023-07-22T06:36:33;3.90;;;2.47;;
26050;SDS011;13825;53.496;10.020;2023-07-22T06:39:00;5.03;;;2.50;;
26050;SDS011;13825;53.496;10.020;2023-07-22T06:41:27;6.40;;;2.73;;
26050;SDS011;13825;53.496;10.020;2023-07-22T06:43:54;5.07;;;2.50;;
26050;SDS011;13825;53.496;10.020;2023-07-22T06:46:21;3.83;;;2.40;;
26050;SDS011;13825;53.496;10.020;2023-07-22T06:48:48;3.23;;;2.07;;
26050;SDS011;13825;53.496;10.020;2023-07-22T06:51:16;5.17;;;2.33;;
26050;SDS011;13825;53.496;10.020;2023-07-22T06:53:43;6.07;;;2.57;;
26050;SDS011;13825;53.496;10.020;2023-07-22T06:56:10;3.53;;;2.43;;
26050;SDS011;13825;53.496;10.020;2023-07-22T06:58:37;4.53;;;2.10;;
26050;SDS011;13825;53.496;10.020;2023-07-22T07:01:04;3.47;;;2.60;;
26050;SDS011;13825;53.496;10.020;2023-07-22T07:03:31;3.77;;;2.30;;
26050;SDS011;13825;53.496;10.020;2023-07-22T07:05:58;4.17;;;2.33;;
26050;SDS011;13825;53.496;10.020;2023-07-22T07:08:26;5.07;;;2.30;;
26050;SDS011;13825;53.496;10.020;2023-07-22T07:10:53;4.90;;;2.40;;
26050;SDS011;13825;53.496;10.020;2023-07-22T07:13:20;4.53;;;2.10;;
26050;SDS011;13825;53.496;10.020;2023-07-22T07:15:47;3.50;;;2.40;;
26050;SDS011;13825;53.496;10.020;2023-07-22T07:18:15;4.57;;;2.10;;
26050;SDS011;13825;53.496;10.020;2023-07-22T07:20:43;2.70;;;1.80;;
26050;SDS011;13825;53.496;10.020;2023-07-22T07:23:10;2.73;;;1.70;;
26050;SDS011;13825;53.496;10.020;2023-07-22T07:25:38;3.43;;;2.20;;
26050;SDS011;13825;53.496;10.020;2023-07-22T07:28:05;6.00;;;2.30;;
26050;SDS011;13825;53.496;10.020;2023-07-22T07:30:32;4.17;;;2.10;;
26050;SDS011;13825;53.496;10.020;2023-07-22T07:32:59;3.33;;;2.03;;
26050;SDS011;13825;53.496;10.020;2023-07-22T07:35:26;2.30;;;1.90;;
26050;SDS011;13825;53.496;10.020;2023-07-22T07:37:53;5.33;;;2.20;;
26050;SDS011;13825;53.496;10.020;2023-07-22T07:40:20;6.93;;;2.53;;
26050;SDS011;13825;53.496;10.020;2023-07-22T07:42:48;3.47;;;2.47;;
26050;SDS011;13825;53.496;10.020;2023-07-22T07:45:15;5.37;;;2.80;;
26050;SDS011;13825;53.496;10.020;2023-07-22T07:47:42;4.30;;;2.10;;
26050;SDS011;13825;53.496;10.020;2023-07-22T07:50:09;3.83;;;2.30;;
26050;SDS011;13825;53.496;10.020;2023-07-22T07:52:36;3.27;;;2.17;;
26050;SDS011;13825;53.496;10.020;2023-07-22T07:55:04;3.27;;;2.77;;
26050;SDS011;13825;53.496;10.020;2023-07-22T07:57:32;3.80;;;2.33;;
26050;SDS011;13825;53.496;10.020;2023-07-22T08:00:00;3.00;;;2.20;;
26050;SDS011;13825;53.496;10.020;2023-07-22T08:02:28;3.13;;;2.00;;
26050;SDS011;13825;53.496;10.020;2023-07-22T08:04:55;2.60;;;1.97;;
26050;SDS011;13825;53.496;10.020;2023-07-22T08:07:24;2.30;;;1.87;;
26050;SDS011;13825;53.496;10.020;2023-07-22T08:09:51;3.10;;;1.80;;
26050;SDS011;13825;53.496;10.020;2023-07-22T08:12:18;5.13;;;2.17;;
26050;SDS011;13825;53.496;10.020;2023-07-22T08:14:45;2.37;;;1.57;;
26050;SDS011;13825;53.496;10.020;2023-07-22T08:17:14;1.80;;;1.40;;
26050;SDS011;13825;53.496;10.020;2023-07-22T08:19:44;3.87;;;1.70;;
26050;SDS011;13825;53.496;10.020;2023-07-22T08:22:10;5.07;;;2.77;;
26050;SDS011;13825;53.496;10.020;2023-07-22T08:24:37;2.77;;;1.77;;
26050;SDS011;13825;53.496;10.020;2023-07-22T08:27:04;4.97;;;1.60;;
26050;SDS011;13825;53.496;10.020;2023-07-22T08:29:31;2.17;;;1.40;;
26050;SDS011;13825;53.496;10.020;2023-07-22T08:31:59;1.80;;;1.40;;
26050;SDS011;13825;53.496;10.020;2023-07-22T08:34:27;1.53;;;1.40;;
26050;SDS011;13825;53.496;10.020;2023-07-22T08:36:54;1.53;;;1.33;;
26050;SDS011;13825;53.496;10.020;2023-07-22T08:39:21;3.53;;;1.70;;
26050;SDS011;13825;53.496;10.020;2023-07-22T08:41:48;2.93;;;1.50;;
26050;SDS011;13825;53.496;10.020;2023-07-22T08:44:17;2.57;;;1.03;;
26050;SDS011;13825;53.496;10.020;2023-07-22T08:46:46;2.53;;;1.30;;
26050;SDS011;13825;53.496;10.020;2023-07-22T08:49:16;1.60;;;1.50;;
26050;SDS011;13825;53.496;10.020;2023-07-22T08:51:44;2.43;;;1.43;;
26050;SDS011;13825;53.496;10.020;2023-07-22T08:54:12;1.27;;;1.17;;
26050;SDS011;13825;53.496;10.020;2023-07-22T08:56:41;2.27;;;1.40;;
26050;SDS011;13825;53.496;10.020;2023-07-22T08:59:09;1.60;;;1.20;;
26050;SDS011;13825;53.496;10.020;2023-07-22T09:01:36;1.53;;;1.37;;
26050;SDS011;13825;53.496;10.020;2023-07-22T09:04:04;1.73;;;1.30;;
26050;SDS011;13825;53.496;10.020;2023-07-22T09:06:32;3.13;;;1.37;;
26050;SDS011;13825;53.496;10.020;2023-07-22T09:09:06;2.50;;;1.33;;
26050;SDS011;13825;53.496;10.020;2023-07-22T09:11:37;1.33;;;1.23;;
26050;SDS011;13825;53.496;10.020;2023-07-22T09:14:04;1.70;;;1.40;;
26050;SDS011;13825;53.496;10.020;2023-07-22T09:16:41;2.17;;;1.27;;
26050;SDS011;13825;53.496;10.020;2023-07-22T09:19:09;1.30;;;1.17;;
26050;SDS011;13825;53.496;10.020;2023-07-22T09:21:39;3.57;;;1.13;;
26050;SDS011;13825;53.496;10.020;2023-07-22T09:24:20;1.83;;;1.63;;
26050;SDS011;13825;53.496;10.020;2023-07-22T09:26:50;3.27;;;1.40;;
26050;SDS011;13825;53.496;10.020;2023-07-22T09:29:31;3.47;;;1.30;;
26050;SDS011;13825;53.496;10.020;2023-07-22T09:31:59;1.73;;;1.13;;
26050;SDS011;13825;53.496;10.020;2023-07-22T09:34:27;1.17;;;1.03;;
26050;SDS011;13825;53.496;10.020;2023-07-22T09:36:54;1.53;;;1.20;;
26050;SDS011;13825;53.496;10.020;2023-07-22T09:39:30;1.30;;;1.13;;
26050;SDS011;13825;53.496;10.020;2023-07-22T09:41:58;2.43;;;1.20;;
26050;SDS011;13825;53.496;10.020;2023-07-22T09:44:29;2.03;;;1.50;;
26050;SDS011;13825;53.496;10.020;2023-07-22T09:46:57;2.53;;;1.70;;
26050;SDS011;13825;53.496;10.020;2023-07-22T09:49:29;2.93;;;1.50;;
26050;SDS011;13825;53.496;10.020;2023-07-22T09:52:19;1.87;;;1.40;;
26050;SDS011;13825;53.496;10.020;2023-07-22T09:54:53;2.57;;;1.33;;
26050;SDS011;13825;53.496;10.020;2023-07-22T09:57:30;2.40;;;1.43;;
26050;SDS011;13825;53.496;10.020;2023-07-22T10:00:00;1.33;;;1.23;;
26050;SDS011;13825;53.496;10.020;2023-07-22T10:02:31;2.63;;;1.73;;
26050;SDS011;13825;53.496;10.020;2023-07-22T10:05:00;1.50;;;1.40;;
26050;SDS011;13825;53.496;10.020;2023-07-22T10:07:30;1.70;;;1.60;;
26050;SDS011;13825;53.496;10.020;2023-07-22T10:10:11;1.50;;;1.40;;
26050;SDS011;13825;53.496;10.020;2023-07-22T10:12:48;2.00;;;1.40;;
26050;SDS011;13825;53.496;10.020;2023-07-22T10:15:15;1.50;;;1.30;;
26050;SDS011;13825;53.496;10.020;2023-07-22T10:17:44;1.80;;;1.53;;
26050;SDS011;13825;53.496;10.020;2023-07-22T10:20:15;2.30;;;1.30;;
26050;SDS011;13825;53.496;10.020;2023-07-22T10:22:47;2.57;;;1.30;;
26050;SDS011;13825;53.496;10.020;2023-07-22T10:28:07;2.03;;;1.40;;
26050;SDS011;13825;53.496;10.020;2023-07-22T10:30:38;1.17;;;1.07;;
26050;SDS011;13825;53.496;10.020;2023-07-22T10:33:08;2.77;;;1.90;;
26050;SDS011;13825;53.496;10.020;2023-07-22T10:35:40;1.60;;;1.23;;
26050;SDS011;13825;53.496;10.020;2023-07-22T10:38:11;1.60;;;1.17;;
26050;SDS011;13825;53.496;10.020;2023-07-22T10:40:46;1.90;;;1.20;;
26050;SDS011;13825;53.496;10.020;2023-07-22T10:43:15;2.23;;;1.17;;
26050;SDS011;13825;53.496;10.020;2023-07-22T10:45:48;2.63;;;1.30;;
26050;SDS011;13825;53.496;10.020;2023-07-22T10:48:19;1.60;;;1.20;;
26050;SDS011;13825;53.496;10.020;2023-07-22T10:50:49;2.27;;;1.20;;
26050;SDS011;13825;53.496;10.020;2023-07-22T10:53:22;3.00;;;1.50;;
26050;SDS011;13825;53.496;10.020;2023-07-22T10:56:10;1.77;;;1.60;;
26050;SDS011;13825;53.496;10.020;2023-07-22T10:58:58;1.77;;;1.47;;
26050;SDS011;13825;53.496;10.020;2023-07-22T11:01:31;2.83;;;1.50;;
26050;SDS011;13825;53.496;10.020;2023-07-22T11:04:12;2.10;;;1.60;;
26050;SDS011;13825;53.496;10.020;2023-07-22T11:06:53;3.70;;;1.63;;
26050;SDS011;13825;53.496;10.020;2023-07-22T11:09:39;2.47;;;1.70;;
26050;SDS011;13825;53.496;10.020;2023-07-22T11:15:06;3.50;;;1.90;;
26050;SDS011;13825;53.496;10.020;2023-07-22T11:17:49;2.70;;;1.80;;
26050;SDS011;13825;53.496;10.020;2023-07-22T11:20:23;2.73;;;1.83;;
26050;SDS011;13825;53.496;10.020;2023-07-22T11:23:13;2.50;;;1.83;;
26050;SDS011;13825;53.496;10.020;2023-07-22T11:25:40;2.83;;;2.00;;
26050;SDS011;13825;53.496;10.020;2023-07-22T11:28:09;3.70;;;2.13;;
26050;SDS011;13825;53.496;10.020;2023-07-22T11:30:37;3.03;;;2.00;;
26050;SDS011;13825;53.496;10.020;2023-07-22T11:33:10;3.77;;;2.57;;
26050;SDS011;13825;53.496;10.020;2023-07-22T11:46:15;3.87;;;2.30;;
26050;SDS011;13825;53.496;10.020;2023-07-22T11:53:13;8.90;;;4.27;;
26050;SDS011;13825;53.496;10.020;2023-07-22T12:02:12;6.47;;;5.07;;
26050;SDS011;13825;53.496;10.020;2023-07-22T12:08:02;3.30;;;2.80;;
26050;SDS011;13825;53.496;10.020;2023-07-22T12:11:16;6.17;;;2.77;;
26050;SDS011;13825;53.496;10.020;2023-07-22T12:24:36;3.20;;;2.60;;
26050;SDS011;13825;53.496;10.020;2023-07-22T12:27:38;4.40;;;3.03;;
26050;SDS011;13825;53.496;10.020;2023-07-22T12:33:45;3.97;;;2.83;;
26050;SDS011;13825;53.496;10.020;2023-07-22T12:39:43;3.03;;;2.67;;
26050;SDS011;13825;53.496;10.020;2023-07-22T12:42:56;4.40;;;2.90;;
26050;SDS011;13825;53.496;10.020;2023-07-22T12:45:45;5.33;;;3.20;;
26050;SDS011;13825;53.496;10.020;2023-07-22T12:48:51;4.83;;;3.47;;
26050;SDS011;13825;53.496;10.020;2023-07-22T12:58:09;4.27;;;3.10;;
26050;SDS011;13825;53.496;10.020;2023-07-22T13:04:09;5.30;;;3.57;;
26050;SDS011;13825;53.496;10.020;2023-07-22T13:07:49;8.20;;;4.00;;
26050;SDS011;13825;53.496;10.020;2023-07-22T13:14:05;4.73;;;3.47;;
26050;SDS011;13825;53.496;10.020;2023-07-22T13:33:53;5.80;;;3.40;;
26050;SDS011;13825;53.496;10.020;2023-07-22T13:37:10;5.10;;;3.40;;
26050;SDS011;13825;53.496;10.020;2023-07-22T13:44:09;4.23;;;3.17;;
26050;SDS011;13825;53.496;10.020;2023-07-22T13:47:16;4.90;;;3.37;;
26050;SDS011;13825;53.496;10.020;2023-07-22T13:50:41;5.00;;;3.00;;
26050;SDS011;13825;53.496;10.020;2023-07-22T13:53:37;4.73;;;3.17;;
26050;SDS011;13825;53.496;10.020;2023-07-22T13:56:39;4.80;;;3.30;;
26050;SDS011;13825;53.496;10.020;2023-07-22T13:59:22;4.63;;;3.20;;
26050;SDS011;13825;53.496;10.020;2023-07-22T14:02:18;5.83;;;3.83;;
26050;SDS011;13825;53.496;10.020;2023-07-22T14:08:31;3.77;;;3.10;;
26050;SDS011;13825;53.496;10.020;2023-07-22T14:11:25;5.00;;;3.50;;
26050;SDS011;13825;53.496;10.020;2023-07-22T14:14:10;5.33;;;3.07;;
26050;SDS011;13825;53.496;10.020;2023-07-22T14:17:00;6.17;;;3.10;;
26050;SDS011;13825;53.496;10.020;2023-07-22T14:23:06;4.87;;;3.30;;
26050;SDS011;13825;53.496;10.020;2023-07-22T14:37:17;3.83;;;3.10;;
26050;SDS011;13825;53.496;10.020;2023-07-22T14:43:32;4.80;;;3.30;;
26050;SDS011;13825;53.496;10.020;2023-07-22T14:46:22;6.07;;;3.50;;
26050;SDS011;13825;53.496;10.020;2023-07-22T14:49:26;6.13;;;3.60;;
26050;SDS011;13825;53.496;10.020;2023-07-22T14:53:10;7.40;;;3.83;;
26050;SDS011;13825;53.496;10.020;2023-07-22T14:56:00;5.80;;;3.80;;
26050;SDS011;13825;53.496;10.020;2023-07-22T14:59:17;6.43;;;4.50;;
26050;SDS011;13825;53.496;10.020;2023-07-22T15:05:21;4.47;;;3.00;;
26050;SDS011;13825;53.496;10.020;2023-07-22T15:08:34;5.00;;;3.70;;
26050;SDS011;13825;53.496;10.020;2023-07-22T15:11:11;4.43;;;3.00;;
26050;SDS011;13825;53.496;10.020;2023-07-22T15:14:03;4.33;;;3.00;;
26050;SDS011;13825;53.496;10.020;2023-07-22T15:26:03;5.10;;;3.50;;
26050;SDS011;13825;53.496;10.020;2023-07-22T15:28:56;4.07;;;3.00;;
26050;SDS011;13825;53.496;10.020;2023-07-22T15:31:55;6.43;;;3.77;;
26050;SDS011;13825;53.496;10.020;2023-07-22T15:34:56;3.87;;;3.00;;
26050;SDS011;13825;53.496;10.020;2023-07-22T15:37:51;5.27;;;3.30;;
26050;SDS011;13825;53.496;10.020;2023-07-22T15:44:30;3.77;;;3.10;;
26050;SDS011;13825;53.496;10.020;2023-07-22T15:50:40;6.67;;;3.83;;
26050;SDS011;13825;53.496;10.020;2023-07-22T15:53:42;4.70;;;3.30;;
26050;SDS011;13825;53.496;10.020;2023-07-22T15:59:41;6.03;;;3.40;;
26050;SDS011;13825;53.496;10.020;2023-07-22T16:03:01;6.63;;;3.10;;
26050;SDS011;13825;53.496;10.020;2023-07-22T16:06:24;4.70;;;3.20;;
26050;SDS011;13825;53.496;10.020;2023-07-22T16:09:26;4.77;;;3.13;;
26050;SDS011;13825;53.496;10.020;2023-07-22T16:23:32;7.13;;;3.90;;
26050;SDS011;13825;53.496;10.020;2023-07-22T16:27:25;5.63;;;4.27;;
26050;SDS011;13825;53.496;10.020;2023-07-22T16:30:26;4.83;;;3.60;;
26050;SDS011;13825;53.496;10.020;2023-07-22T16:36:01;6.50;;;3.90;;
26050;SDS011;13825;53.496;10.020;2023-07-22T17:01:00;4.37;;;3.77;;
26050;SDS011;13825;53.496;10.020;2023-07-22T17:04:00;4.73;;;3.77;;
26050;SDS011;13825;53.496;10.020;2023-07-22T17:10:28;6.00;;;3.60;;
26050;SDS011;13825;53.496;10.020;2023-07-22T17:29:35;6.83;;;4.50;;
26050;SDS011;13825;53.496;10.020;2023-07-22T17:32:35;7.47;;;5.03;;
26050;SDS011;13825;53.496;10.020;2023-07-22T17:35:45;6.70;;;4.50;;
26050;SDS011;13825;53.496;10.020;2023-07-22T17:42:13;7.20;;;5.07;;
26050;SDS011;13825;53.496;10.020;2023-07-22T17:52:14;5.40;;;4.13;;
26050;SDS011;13825;53.496;10.020;2023-07-22T17:58:09;6.43;;;4.47;;
26050;SDS011;13825;53.496;10.020;2023-07-22T18:01:10;6.63;;;4.67;;
26050;SDS011;13825;53.496;10.020;2023-07-22T18:08:13;6.73;;;4.93;;
26050;SDS011;13825;53.496;10.020;2023-07-22T18:17:36;8.23;;;4.90;;
26050;SDS011;13825;53.496;10.020;2023-07-22T18:18:25;6.47;;;5.03;;
26050;SDS011;13825;53.496;10.020;2023-07-22T18:22:26;6.77;;;4.93;;
26050;SDS011;13825;53.496;10.020;2023-07-22T18:24:44;7.53;;;5.13;;
26050;SDS011;13825;53.496;10.020;2023-07-22T18:27:58;7.67;;;5.10;;
26050;SDS011;13825;53.496;10.020;2023-07-22T18:31:20;6.67;;;5.00;;
26050;SDS011;13825;53.496;10.020;2023-07-22T18:33:41;6.93;;;4.97;;
26050;SDS011;13825;53.496;10.020;2023-07-22T18:43:04;6.33;;;4.90;;
26050;SDS011;13825;53.496;10.020;2023-07-22T18:45:52;6.73;;;4.23;;
26050;SDS011;13825;53.496;10.020;2023-07-22T18:48:41;6.67;;;4.90;;